Time;durP1;ratioP1;P1;durP2;ratioP2;P2;SDS_P1;SDS_P2;PMS_P1;PMS_P2;Temp;Humidity;BMP_temperature;BMP_pressure;BME280_temperature;BME280_humidity;BME280_pressure;Samples;Min_cycle;Max_cycle;Signal;HPM_P1;HPM_P2
2023/05/22 00:01:26;;;;;;;1.92;1.08;;;;;;;18.92;46.70;101336.69;15568452;28;20046;-49
2023/05/22 00:09:00;;;;;;;2.22;0.85;;;;;;;19.01;46.46;101337.91;15599272;28;20560;-45
2023/05/22 00:16:33;;;;;;;2.38;1.02;;;;;;;19.30;45.44;101331.19;15555068;28;20046;-45
2023/05/22 00:24:07;;;;;;;2.05;1.05;;;;;;;19.35;45.57;101314.09;15592314;28;20075;-49
2023/05/22 00:31:40;;;;;;;1.77;1.13;;;;;;;19.12;45.87;101312.50;15571390;28;20050;-49
2023/05/22 00:39:14;;;;;;;1.88;1.23;;;;;;;18.64;46.67;101313.97;15509925;28;20088;-46
2023/05/22 00:46:46;;;;;;;3.10;1.52;;;;;;;18.75;46.95;101309.56;15503530;28;20451;-49
2023/05/22 00:54:20;;;;;;;1.92;1.10;;;;;;;18.83;46.22;101307.19;15529440;28;20069;-50
2023/05/22 01:01:53;;;;;;;3.78;1.77;;;;;;;18.74;46.99;101308.72;15539119;28;20077;-45
2023/05/22 01:09:27;;;;;;;5.55;1.00;;;;;;;19.05;46.46;101307.22;15571228;28;20599;-47
2023/05/22 01:17:07;;;;;;;1.58;1.05;;;;;;;18.75;47.33;101299.50;15580651;28;20074;-47
2023/05/22 01:25:20;;;;;;;1.30;0.73;;;;;;;18.51;46.93;101300.72;15588896;28;20266;-47
2023/05/22 01:32:55;;;;;;;;;;;;;;;18.13;47.85;101298.78;15532235;28;20074;-47
2023/05/22 01:40:29;;;;;;;2.60;1.27;;;;;;;18.33;47.69;101297.22;15565542;28;20040;-46
2023/05/22 01:48:04;;;;;;;1.83;0.77;;;;;;;18.44;47.70;101295.47;15547738;28;20499;-47
2023/05/22 01:55:44;;;;;;;0.80;0.73;;;;;;;17.91;48.09;101294.09;15558911;28;20046;-48
2023/05/22 02:03:20;;;;;;;1.27;0.80;;;;;;;17.21;49.66;101311.47;15537859;28;20046;-46
2023/05/22 02:10:57;;;;;;;1.70;1.10;;;;;;;17.39;49.02;101305.03;15548859;28;20529;-47
2023/05/22 02:18:31;;;;;;;1.60;1.02;;;;;;;17.43;49.17;101306.19;15521269;28;20140;-48
2023/05/22 02:26:04;;;;;;;1.45;0.90;;;;;;;17.39;48.59;101302.31;15539269;28;20048;-48
2023/05/22 02:33:39;;;;;;;1.88;1.10;;;;;;;17.23;48.85;101292.22;15528326;28;20128;-51
2023/05/22 02:41:13;;;;;;;1.23;0.80;;;;;;;16.99;49.02;101300.44;15532809;28;20293;-48
2023/05/22 02:48:47;;;;;;;1.30;0.98;;;;;;;16.97;49.14;101293.59;15523349;28;20141;-52
2023/05/22 02:56:20;;;;;;;2.95;1.42;;;;;;;16.96;49.02;101286.53;15560665;22;20132;-45
2023/05/22 03:03:54;;;;;;;;;;;;;;;17.08;48.66;101287.34;15602664;28;20076;-47
2023/05/22 03:11:27;;;;;;;1.52;0.85;;;;;;;16.83;49.12;101284.88;15623163;28;20348;-46
2023/05/22 03:19:09;;;;;;;2.67;1.10;;;;;;;17.08;48.95;101277.31;15609500;28;20045;-48
2023/05/22 03:26:42;;;;;;;5.30;1.23;;;;;;;16.69;49.72;101268.03;15623330;28;20063;-48
2023/05/22 03:34:22;;;;;;;2.42;1.13;;;;;;;16.81;49.63;101268.88;15613254;28;20532;-46
2023/05/22 03:41:55;;;;;;;0.75;0.50;;;;;;;17.39;48.35;101277.06;15599449;28;20053;-47
2023/05/22 03:49:30;;;;;;;2.30;1.17;;;;;;;16.85;50.12;101271.94;15608919;28;20545;-50
2023/05/22 03:57:06;;;;;;;2.78;1.15;;;;;;;17.18;49.53;101267.72;15643728;28;20231;-47
2023/05/22 04:04:40;;;;;;;2.97;1.30;;;;;;;17.08;50.11;101271.88;15615601;28;20133;-47
2023/05/22 04:12:12;;;;;;;0.70;0.70;;;;;;;17.06;50.20;101270.44;15626810;28;20405;-49
2023/05/22 04:19:46;;;;;;;2.03;1.27;;;;;;;17.12;50.16;101265.97;15613274;28;20057;-46
2023/05/22 04:27:21;;;;;;;2.33;1.02;;;;;;;17.13;50.47;101267.63;15621478;28;20049;-49
2023/05/22 04:34:57;;;;;;;2.58;0.70;;;;;;;17.33;50.74;101260.69;15611904;28;20038;-49
2023/05/22 04:42:30;;;;;;;2.13;1.25;;;;;;;17.10;51.03;101271.63;15632614;28;20052;-46
2023/05/22 04:50:04;;;;;;;1.48;0.98;;;;;;;17.56;50.29;101270.63;15622910;28;20049;-47
2023/05/22 04:57:37;;;;;;;1.15;1.05;;;;;;;17.83;50.01;101260.00;15617929;28;20037;-47
2023/05/22 05:05:12;;;;;;;;;;;;;;;17.63;50.66;101256.91;15613080;28;20092;-48
2023/05/22 05:12:45;;;;;;;2.80;1.35;;;;;;;17.81;50.11;101258.59;15616209;28;20023;-51
2023/05/22 05:20:20;;;;;;;3.88;1.25;;;;;;;17.92;49.85;101262.31;15624121;28;20121;-48
2023/05/22 05:27:53;;;;;;;1.52;0.98;;;;;;;18.41;50.06;101260.63;15654481;28;20045;-47
2023/05/22 05:35:29;;;;;;;1.85;0.85;;;;;;;18.59;49.31;101263.06;15626119;28;20090;-49
2023/05/22 05:43:24;;;;;;;2.25;1.45;;;;;;;18.29;49.56;101268.06;15631582;28;20045;-48
2023/05/22 05:50:58;;;;;;;1.17;0.85;;;;;;;18.26;49.82;101263.13;15627849;28;20132;-46
2023/05/22 05:58:34;;;;;;;1.67;1.23;;;;;;;18.78;48.95;101262.81;15608718;28;20094;-45
2023/05/22 06:06:29;;;;;;;1.23;0.90;;;;;;;20.30;45.71;101266.25;15635245;28;20041;-47
2023/05/22 06:14:25;;;;;;;2.97;1.33;;;;;;;20.32;45.77;101258.63;15641024;28;20057;-50
2023/05/22 06:22:00;;;;;;;2.38;1.30;;;;;;;20.49;45.78;101253.06;15627128;28;20147;-45
2023/05/22 06:29:34;;;;;;;2.78;1.33;;;;;;;20.45;46.09;101257.34;15595763;28;20049;-49
2023/05/22 06:37:09;;;;;;;2.63;1.45;;;;;;;20.75;45.20;101261.34;15618073;28;20048;-50
2023/05/22 06:44:47;;;;;;;2.10;1.40;;;;;;;21.21;45.91;101267.00;15635616;28;20038;-48
2023/05/22 06:52:21;;;;;;;2.67;1.83;;;;;;;21.72;42.70;101248.00;15640856;28;20055;-50
2023/05/22 06:59:54;;;;;;;4.18;1.23;;;;;;;21.76;45.48;101252.66;15607586;28;20137;-48
2023/05/22 07:07:48;;;;;;;5.63;1.10;;;;;;;21.22;45.54;101255.03;15625497;28;20068;-50
2023/05/22 07:15:22;;;;;;;1.85;1.45;;;;;;;21.20;45.68;101258.00;15641307;28;20387;-47
2023/05/22 07:23:00;;;;;;;1.98;1.13;;;;;;;22.28;44.15;101248.84;15640332;28;20029;-48
2023/05/22 07:30:36;;;;;;;1.70;1.10;;;;;;;22.85;42.18;101244.03;15622972;28;20065;-46
2023/05/22 07:38:10;;;;;;;2.78;1.42;;;;;;;23.14;42.45;101241.47;15621645;28;20414;-49
2023/05/22 07:45:46;;;;;;;3.40;1.58;;;;;;;23.56;42.71;101242.84;15622566;28;20502;-47
2023/05/22 07:53:23;;;;;;;1.73;1.20;;;;;;;23.58;42.01;101249.66;15629842;28;20152;-49
2023/05/22 08:01:00;;;;;;;2.72;1.50;;;;;;;24.29;41.10;101241.97;15620256;28;20532;-50
2023/05/22 08:08:35;;;;;;;4.07;1.83;;;;;;;24.07;39.61;101245.22;15643271;28;20437;-49
2023/05/22 08:16:09;;;;;;;4.28;1.35;;;;;;;24.76;39.56;101243.09;15643194;28;20037;-48
2023/05/22 08:23:44;;;;;;;3.42;2.15;;;;;;;24.50;39.61;101231.63;15636583;28;20041;-47
2023/05/22 08:31:16;;;;;;;3.75;1.65;;;;;;;23.98;40.76;101225.00;15637808;28;20116;-48
2023/05/22 08:38:50;;;;;;;2.55;1.50;;;;;;;24.60;39.42;101218.59;15645522;28;20050;-47
2023/05/22 08:46:27;;;;;;;1.80;1.27;;;;;;;25.49;39.10;101217.13;15640828;28;20045;-47
2023/05/22 08:54:04;;;;;;;3.80;1.60;;;;;;;25.33;38.32;101213.81;15649240;28;20095;-47
2023/05/22 09:01:37;;;;;;;3.30;1.65;;;;;;;25.26;38.02;101203.19;15723879;23;20052;-50
2023/05/22 09:09:13;;;;;;;1.15;0.77;;;;;;;25.33;36.49;101183.59;15781916;28;20093;-53
2023/05/22 09:16:46;;;;;;;2.70;1.67;;;;;;;26.19;36.51;101182.09;15797458;28;20492;-51
2023/05/22 09:24:21;;;;;;;1.63;1.00;;;;;;;26.25;35.29;101169.06;15833152;28;20508;-49
2023/05/22 09:31:56;;;;;;;2.85;1.15;;;;;;;25.69;36.07;101176.41;15811333;28;20052;-51
2023/05/22 09:39:41;;;;;;;2.90;1.27;;;;;;;25.65;35.22;101171.81;15815576;28;20070;-51
2023/05/22 09:47:13;;;;;;;0.95;0.40;;;;;;;26.57;33.91;101167.34;15806181;28;20054;-52
2023/05/22 09:54:53;;;;;;;2.30;1.30;;;;;;;26.53;32.84;101152.56;15831310;28;20093;-50
2023/05/22 10:02:28;;;;;;;1.50;1.00;;;;;;;25.27;35.06;101160.84;15799900;28;20442;-49
2023/05/22 10:10:07;;;;;;;2.30;0.98;;;;;;;25.08;35.36;101160.06;15831318;28;20412;-52
2023/05/22 10:17:40;;;;;;;3.38;1.23;;;;;;;25.59;35.00;101154.56;15824423;28;20052;-50
2023/05/22 10:25:17;;;;;;;1.10;0.77;;;;;;;26.91;33.14;101147.63;15831061;28;20490;-51
2023/05/22 10:32:56;;;;;;;3.10;1.27;;;;;;;26.40;34.24;101133.00;15819573;28;20588;-53
2023/05/22 10:40:33;;;;;;;2.00;0.80;;;;;;;26.74;33.48;101133.69;15829052;28;20044;-52
2023/05/22 10:48:07;;;;;;;1.40;1.00;;;;;;;26.86;32.45;101123.75;15808174;28;20051;-50
2023/05/22 10:55:49;;;;;;;2.38;1.40;;;;;;;27.40;31.40;101112.84;15795836;28;20060;-51
2023/05/22 11:03:22;;;;;;;1.83;1.05;;;;;;;27.92;31.38;101110.38;15839855;28;20047;-50
2023/05/22 11:10:57;;;;;;;2.30;1.20;;;;;;;27.30;31.92;101100.13;15809773;28;20139;-51
2023/05/22 11:18:31;;;;;;;1.88;0.90;;;;;;;26.35;33.53;101093.75;15795115;28;20044;-51
2023/05/22 11:26:27;;;;;;;2.15;1.58;;;;;;;26.55;33.01;101092.50;15812801;28;20055;-51
2023/05/22 11:34:00;;;;;;;1.38;1.00;;;;;;;26.75;31.20;101086.53;15824809;28;20044;-51
2023/05/22 11:41:35;;;;;;;2.30;1.15;;;;;;;27.15;30.92;101076.53;15841603;28;20035;-53
2023/05/22 11:49:11;;;;;;;2.20;1.13;;;;;;;26.99;31.26;101080.75;15800714;28;20052;-51
2023/05/22 11:56:46;;;;;;;2.03;0.80;;;;;;;26.66;31.25;101067.19;15822347;28;20389;-51
2023/05/22 12:04:19;;;;;;;2.75;1.25;;;;;;;27.03;30.03;101073.47;15824710;28;20032;-51
2023/05/22 12:11:55;;;;;;;1.80;0.85;;;;;;;27.41;30.50;101053.81;15834459;28;20605;-51
2023/05/22 12:19:31;;;;;;;2.10;1.20;;;;;;;28.19;27.21;101051.38;15830312;28;20076;-54
2023/05/22 12:27:11;;;;;;;4.13;1.33;;;;;;;28.24;29.10;101042.94;15819687;28;20040;-49
2023/05/22 12:34:45;;;;;;;2.13;1.17;;;;;;;28.50;27.67;101043.03;15804952;28;20051;-50
2023/05/22 12:42:20;;;;;;;1.80;0.90;;;;;;;29.70;25.82;101037.63;15808339;28;20076;-49
2023/05/22 12:49:53;;;;;;;1.90;0.98;;;;;;;30.57;24.04;101037.16;15744995;28;20070;-53
2023/05/22 12:57:27;;;;;;;1.73;0.90;;;;;;;30.87;24.59;101043.41;15749673;28;20048;-51
2023/05/22 13:05:00;;;;;;;1.20;0.63;;;;;;;30.62;23.15;101023.88;15796903;28;20035;-53
2023/05/22 13:12:34;;;;;;;1.55;0.75;;;;;;;29.65;24.56;101024.00;15803956;28;20128;-49
2023/05/22 13:20:08;;;;;;;2.40;0.80;;;;;;;28.13;25.86;101022.31;15774942;28;20043;-50
2023/05/22 13:27:42;;;;;;;1.02;0.57;;;;;;;28.13;25.78;101016.78;15819745;28;20115;-52
2023/05/22 13:35:15;;;;;;;1.95;1.00;;;;;;;27.75;27.29;101005.50;15844383;28;20097;-48
2023/05/22 13:42:51;;;;;;;2.75;1.23;;;;;;;27.30;26.60;101009.16;15809959;28;20126;-55
2023/05/22 13:50:24;;;;;;;1.35;0.80;;;;;;;27.32;25.98;100993.09;15783718;28;20566;-52
2023/05/22 13:57:59;;;;;;;1.83;0.80;;;;;;;27.73;24.04;100997.53;15826857;28;20318;-51
2023/05/22 14:05:32;;;;;;;1.05;0.60;;;;;;;27.51;25.04;100992.06;15821416;28;20112;-49
2023/05/22 14:13:07;;;;;;;1.67;0.52;;;;;;;27.59;24.92;100971.97;15839118;28;20040;-50
2023/05/22 14:20:40;;;;;;;1.73;1.13;;;;;;;27.03;25.22;100970.72;15842828;28;20066;-51
2023/05/22 14:28:15;;;;;;;1.25;0.60;;;;;;;27.01;25.17;100964.72;15821141;28;20044;-51
2023/05/22 14:35:49;;;;;;;1.42;0.82;;;;;;;26.67;25.00;100966.09;15780657;28;20051;-49
2023/05/22 14:43:24;;;;;;;1.48;0.80;;;;;;;26.65;24.84;100954.59;15838346;28;20059;-54
2023/05/22 14:50:57;;;;;;;1.95;0.90;;;;;;;27.41;24.87;100952.63;15783401;28;20388;-53
2023/05/22 14:58:31;;;;;;;2.65;1.02;;;;;;;26.91;25.03;100925.28;15793932;22;20068;-52
2023/05/22 15:06:04;;;;;;;1.50;1.08;;;;;;;26.80;24.50;100937.69;15646093;28;20041;-53
2023/05/22 15:13:39;;;;;;;0.90;0.73;;;;;;;26.82;25.35;100921.69;15534882;28;20087;-47
2023/05/22 15:21:12;;;;;;;2.85;0.93;;;;;;;26.11;24.93;100915.97;15581684;28;20050;-53
2023/05/22 15:28:49;;;;;;;1.55;1.10;;;;;;;25.95;25.18;100903.66;15597018;28;20054;-49
2023/05/22 15:36:22;;;;;;;1.33;0.93;;;;;;;26.49;25.89;100899.13;15599332;28;20052;-48
2023/05/22 15:43:56;;;;;;;1.45;0.77;;;;;;;26.58;25.70;100888.13;15594834;28;20127;-51
2023/05/22 15:51:29;;;;;;;0.65;0.40;;;;;;;26.25;25.72;100882.84;15583403;28;20084;-49
2023/05/22 15:59:03;;;;;;;1.92;0.82;;;;;;;25.81;25.35;100878.94;15612939;28;20045;-51
2023/05/22 16:06:36;;;;;;;0.90;0.65;;;;;;;25.81;24.82;100878.94;15594799;28;20490;-49
2023/05/22 16:14:10;;;;;;;0.88;0.57;;;;;;;25.63;25.38;100872.41;15595549;28;20108;-50
2023/05/22 16:21:44;;;;;;;2.13;0.88;;;;;;;25.80;25.99;100871.81;15578598;28;20042;-49
2023/05/22 16:29:20;;;;;;;1.95;1.00;;;;;;;25.81;25.99;100862.44;15578600;28;20049;-51
2023/05/22 16:36:53;;;;;;;3.70;1.23;;;;;;;25.62;26.10;100864.50;15528827;28;20052;-46
2023/05/22 16:44:27;;;;;;;1.60;0.80;;;;;;;25.47;25.56;100864.81;15540806;28;20050;-46
2023/05/22 16:52:00;;;;;;;9.48;3.20;;;;;;;25.45;24.09;100867.84;15537399;28;20510;-53
2023/05/22 16:59:34;;;;;;;1.17;0.50;;;;;;;25.48;24.83;100869.19;15536994;28;20065;-52
2023/05/22 17:07:07;;;;;;;1.23;0.70;;;;;;;25.51;24.91;100876.81;15554159;28;20046;-53
2023/05/22 17:14:41;;;;;;;1.73;0.70;;;;;;;25.46;24.79;100886.00;15558986;28;20507;-54
2023/05/22 17:22:13;;;;;;;0.70;0.50;;;;;;;25.86;25.43;100867.00;15562691;28;20049;-54
2023/05/22 17:29:47;;;;;;;3.47;0.80;;;;;;;25.09;25.18;100862.31;15552068;28;20081;-50
2023/05/22 17:37:20;;;;;;;2.08;0.45;;;;;;;25.16;25.55;100862.69;15542929;28;20113;-54
2023/05/22 17:44:54;;;;;;;1.15;0.63;;;;;;;25.07;25.91;100848.00;15545511;28;20076;-48
2023/05/22 17:52:27;;;;;;;3.08;0.90;;;;;;;24.88;26.00;100850.84;15576626;28;20073;-55
2023/05/22 18:00:04;;;;;;;1.48;0.60;;;;;;;24.72;26.66;100850.31;15606273;28;20390;-48
2023/05/22 18:07:45;;;;;;;1.45;0.70;;;;;;;24.22;27.54;100839.06;15523965;28;20075;-55
2023/05/22 18:15:20;;;;;;;1.65;0.60;;;;;;;23.60;28.49;100836.41;15530701;28;20355;-53
2023/05/22 18:22:52;;;;;;;1.35;0.93;;;;;;;23.74;29.01;100844.75;15509641;28;20106;-52
2023/05/22 18:30:27;;;;;;;0.30;0.30;;;;;;;23.60;29.24;100835.59;15537242;28;20132;-51
2023/05/22 18:37:59;;;;;;;3.50;0.70;;;;;;;23.53;29.13;100840.63;15533004;28;20042;-50
2023/05/22 18:45:34;;;;;;;2.63;1.20;;;;;;;22.85;30.89;100842.50;15537879;28;20060;-50
2023/05/22 18:53:07;;;;;;;0.60;0.50;;;;;;;22.96;31.07;100834.19;15544475;28;20536;-53
2023/05/22 19:00:41;;;;;;;2.05;0.73;;;;;;;22.46;32.37;100848.06;15550463;28;20068;-50
2023/05/22 19:08:13;;;;;;;0.88;0.60;;;;;;;22.61;33.65;100849.81;15534161;28;20524;-54
2023/05/22 19:15:48;;;;;;;1.02;0.73;;;;;;;22.52;33.21;100860.59;15557319;28;20052;-51
2023/05/22 19:23:21;;;;;;;1.50;0.57;;;;;;;22.22;34.20;100834.31;15496931;28;20045;-51
2023/05/22 19:30:57;;;;;;;1.85;0.73;;;;;;;22.18;34.23;100866.06;15552338;28;20042;-52
2023/05/22 19:38:29;;;;;;;2.92;1.10;;;;;;;22.31;35.53;100887.28;15603193;28;20592;-51
2023/05/22 19:46:04;;;;;;;1.85;0.65;;;;;;;21.81;35.20;100877.47;15541718;28;20045;-48
2023/05/22 19:53:38;;;;;;;6.13;3.03;;;;;;;21.24;35.89;100884.25;15533684;28;20042;-46
2023/05/22 20:01:13;;;;;;;1.02;0.65;;;;;;;21.43;36.42;100887.22;15556546;28;20278;-51
2023/05/22 20:08:46;;;;;;;1.08;0.50;;;;;;;21.14;37.80;100875.00;15547972;28;20045;-51
2023/05/22 20:16:20;;;;;;;0.80;0.45;;;;;;;20.93;37.63;100883.50;15546677;28;20053;-50
2023/05/22 20:23:54;;;;;;;2.20;0.75;;;;;;;21.25;36.64;100899.53;15546102;28;20049;-50
2023/05/22 20:31:28;;;;;;;1.00;0.73;;;;;;;21.07;38.42;100890.81;15550402;28;20571;-52
2023/05/22 20:39:02;;;;;;;160.38;60.13;;;;;;;20.93;38.13;100883.50;15530470;28;20056;-51
2023/05/22 20:46:36;;;;;;;11.10;1.15;;;;;;;19.97;39.21;100882.38;15568503;28;20046;-51
2023/05/22 20:54:09;;;;;;;7.68;1.20;;;;;;;19.86;39.91;100876.91;15585966;28;20046;-54
2023/05/22 21:01:43;;;;;;;1.17;0.93;;;;;;;19.78;40.27;100880.16;15616405;22;20041;-46
2023/05/22 21:09:16;;;;;;;4.72;1.23;;;;;;;20.05;39.34;100882.66;15642964;28;20659;-51
2023/05/22 21:16:50;;;;;;;1.50;0.70;;;;;;;20.30;39.88;100887.31;15660076;28;20142;-52
2023/05/22 21:24:22;;;;;;;2.55;1.17;;;;;;;20.19;40.09;100890.28;15677356;28;20032;-48
2023/05/22 21:31:58;;;;;;;10.02;1.25;;;;;;;19.94;40.58;100891.91;15673235;28;20041;-50
2023/05/22 21:39:30;;;;;;;2.90;1.63;;;;;;;19.90;41.47;100885.34;15673487;28;20401;-51
2023/05/22 21:47:05;;;;;;;1.38;0.65;;;;;;;19.70;42.17;100877.94;15678900;28;20378;-49
2023/05/22 21:54:38;;;;;;;1.45;0.73;;;;;;;19.42;43.68;100879.16;15677123;28;20106;-51
2023/05/22 22:02:13;;;;;;;3.30;1.40;;;;;;;19.35;43.06;100875.84;15662347;28;20057;-53
2023/05/22 22:09:46;;;;;;;1.45;0.80;;;;;;;19.12;44.85;100879.84;15680330;28;20076;-52
2023/05/22 22:17:22;;;;;;;0.85;0.65;;;;;;;19.28;43.18;100862.50;15669999;28;20086;-54
2023/05/22 22:24:57;;;;;;;1.92;0.80;;;;;;;19.07;42.42;100847.13;15678710;28;20052;-52
2023/05/22 22:32:31;;;;;;;6.43;1.50;;;;;;;19.26;42.61;100853.78;15661715;28;20041;-48
2023/05/22 22:40:05;;;;;;;2.67;1.20;;;;;;;19.20;43.36;100845.84;15684159;28;20052;-49
2023/05/22 22:47:39;;;;;;;4.78;1.23;;;;;;;19.22;42.58;100839.06;15649877;28;20451;-52
2023/05/22 22:55:12;;;;;;;1.20;0.93;;;;;;;19.01;44.04;100843.56;15692588;28;20457;-52
2023/05/22 23:02:46;;;;;;;;;;;;;;;18.78;44.77;100839.38;15690532;28;20416;-52
2023/05/22 23:10:18;;;;;;;1.80;0.80;;;;;;;18.66;43.27;100825.13;15666507;28;20422;-50
2023/05/22 23:17:55;;;;;;;1.35;0.95;;;;;;;18.71;43.77;100817.03;15688670;28;20068;-51
2023/05/22 23:25:28;;;;;;;1.67;0.65;;;;;;;18.49;45.17;100814.41;15680085;28;20047;-48
2023/05/22 23:33:04;;;;;;;1.75;1.13;;;;;;;18.40;45.52;100804.28;15667185;28;20486;-52
2023/05/22 23:40:37;;;;;;;0.98;0.80;;;;;;;18.21;46.18;100798.44;15684416;28;20052;-50
2023/05/22 23:48:12;;;;;;;;;;;;;;;18.13;46.09;100790.75;15683855;28;20044;-49
2023/05/22 23:55:45;;;;;;;1.55;0.68;;;;;;;18.02;47.04;100773.56;15723925;28;19920;-49
